Time;durP1;ratioP1;P1;durP2;ratioP2;P2;SDS_P1;SDS_P2;PMS_P1;PMS_P2;Temp;Humidity;BMP_temperature;BMP_pressure;BME280_temperature;BME280_humidity;BME280_pressure;Samples;Min_cycle;Max_cycle;Signal;HPM_P1;HPM_P2
2022/11/06 00:01:31;;;;;;;91.95;36.28;;;6.10;99.90;;;;;;4959218;28;20027;-92
2022/11/06 00:03:56;;;;;;;129.38;51.72;;;6.10;99.90;;;;;;4959175;28;20499;-93
2022/11/06 00:09:09;;;;;;;131.80;48.80;;;6.10;99.90;;;;;;4976482;28;20038;-93
2022/11/06 00:11:35;;;;;;;127.90;51.20;;;6.20;99.90;;;;;;4959410;28;20058;-93
2022/11/06 00:14:02;;;;;;;141.80;50.47;;;6.20;99.90;;;;;;4959299;28;20027;-93
2022/11/06 00:16:28;;;;;;;171.48;58.35;;;6.20;99.90;;;;;;4958965;28;20031;-93
2022/11/06 00:18:54;;;;;;;138.43;49.20;;;6.20;99.90;;;;;;4960127;28;20027;-92
2022/11/06 00:21:24;;;;;;;104.60;39.42;;;6.30;99.90;;;;;;4967715;28;20118;-92
2022/11/06 00:23:51;;;;;;;105.78;43.58;;;6.30;99.90;;;;;;4976082;28;20058;-91
2022/11/06 00:26:19;;;;;;;97.53;35.03;;;6.30;99.90;;;;;;4958833;28;20031;-92
2022/11/06 00:28:46;;;;;;;96.65;33.28;;;6.40;99.90;;;;;;4958536;28;20117;-91
2022/11/06 00:31:17;;;;;;;101.60;34.67;;;6.40;99.90;;;;;;4958097;28;20547;-92
2022/11/06 00:33:43;;;;;;;96.95;34.60;;;6.40;99.90;;;;;;4958891;28;20130;-91
2022/11/06 00:36:12;;;;;;;96.53;37.78;;;6.50;99.90;;;;;;4958761;28;20114;-92
2022/11/06 00:38:38;;;;;;;90.60;34.15;;;6.50;99.90;;;;;;4958528;28;20042;-92
2022/11/06 00:41:06;;;;;;;93.28;33.97;;;6.60;99.90;;;;;;4958556;28;20026;-92
2022/11/06 00:43:32;;;;;;;104.03;36.25;;;6.60;99.90;;;;;;4958384;28;20027;-91
2022/11/06 00:46:12;;;;;;;104.75;36.80;;;6.70;99.90;;;;;;4958333;28;20473;-92
2022/11/06 00:48:39;;;;;;;103.22;34.20;;;6.70;99.90;;;;;;4958317;28;20129;-92
2022/11/06 00:51:16;;;;;;;109.72;35.33;;;6.70;99.90;;;;;;4958367;28;20109;-92
2022/11/06 00:53:43;;;;;;;94.93;33.85;;;6.80;99.90;;;;;;4958581;28;20053;-92
2022/11/06 00:56:11;;;;;;;129.85;46.22;;;6.70;99.90;;;;;;4958504;28;20243;-93
2022/11/06 00:58:38;;;;;;;140.68;52.28;;;6.80;99.90;;;;;;4958211;28;20436;-92
2022/11/06 01:01:13;;;;;;;209.25;63.05;;;6.80;99.90;;;;;;4958554;28;20377;-92
2022/11/06 01:03:40;;;;;;;155.68;49.13;;;6.80;99.90;;;;;;4961659;28;20090;-93
2022/11/06 01:06:10;;;;;;;113.20;42.15;;;6.80;99.90;;;;;;4969724;28;20046;-92
2022/11/06 01:08:37;;;;;;;105.95;38.97;;;6.80;99.90;;;;;;4972406;28;20069;-92
2022/11/06 01:11:22;;;;;;;113.43;40.00;;;6.80;99.90;;;;;;4959751;28;20054;-92
2022/11/06 01:13:51;;;;;;;116.20;40.40;;;6.80;99.90;;;;;;4971253;28;20039;-92
2022/11/06 01:16:16;;;;;;;118.82;38.60;;;6.80;99.90;;;;;;4972683;28;20023;-93
2022/11/06 01:18:44;;;;;;;133.88;43.38;;;6.80;99.90;;;;;;4975406;28;20045;-93
2022/11/06 01:21:14;;;;;;;88.30;35.15;;;6.80;99.90;;;;;;4957954;28;20019;-93
2022/11/06 01:23:40;;;;;;;111.40;40.03;;;6.80;99.90;;;;;;4957782;28;20039;-94
2022/11/06 01:26:09;;;;;;;110.72;39.38;;;6.80;99.90;;;;;;4957907;28;20041;-93
2022/11/06 01:28:36;;;;;;;124.15;41.25;;;6.80;99.90;;;;;;4957981;28;20023;-93
2022/11/06 01:31:03;;;;;;;110.32;38.70;;;6.80;99.90;;;;;;4957799;28;20030;-92
2022/11/06 01:33:29;;;;;;;109.60;41.33;;;6.80;99.90;;;;;;4957689;28;20038;-93
2022/11/06 01:35:55;;;;;;;116.22;39.83;;;6.90;99.90;;;;;;4957939;28;20030;-92
2022/11/06 01:38:20;;;;;;;129.27;40.97;;;6.90;99.90;;;;;;4957777;28;20481;-92
2022/11/06 01:40:47;;;;;;;139.70;43.17;;;6.90;99.90;;;;;;4957698;28;20508;-92
2022/11/06 01:43:16;;;;;;;127.68;41.47;;;6.90;99.90;;;;;;4957619;28;20519;-92
2022/11/06 01:45:44;;;;;;;130.02;39.67;;;6.90;99.90;;;;;;4957636;28;20030;-92
2022/11/06 01:48:11;;;;;;;111.70;37.17;;;6.90;99.90;;;;;;4957772;28;20026;-92
2022/11/06 01:50:39;;;;;;;123.07;40.50;;;6.90;99.90;;;;;;4957917;28;20089;-93
2022/11/06 01:53:04;;;;;;;131.60;38.17;;;6.90;99.90;;;;;;4960352;28;20050;-91
2022/11/06 01:55:37;;;;;;;98.85;34.60;;;6.90;99.90;;;;;;4972844;28;20038;-92
2022/11/06 01:58:05;;;;;;;85.07;31.08;;;6.90;99.90;;;;;;4965252;28;20031;-92
2022/11/06 02:00:31;;;;;;;77.35;30.70;;;7.00;99.90;;;;;;4967457;28;20031;-92
2022/11/06 02:02:58;;;;;;;76.30;28.17;;;7.00;99.90;;;;;;4962173;28;20045;-92
2022/11/06 02:05:25;;;;;;;82.32;30.05;;;7.00;99.90;;;;;;4961118;28;20054;-93
2022/11/06 02:07:52;;;;;;;68.63;26.75;;;7.10;99.90;;;;;;4961419;28;20030;-92
2022/11/06 02:10:17;;;;;;;64.07;24.50;;;7.10;99.90;;;;;;4961359;28;20023;-93
2022/11/06 02:12:46;;;;;;;86.18;27.80;;;7.10;99.90;;;;;;4961160;28;20041;-93
2022/11/06 02:15:17;;;;;;;83.15;28.20;;;7.20;99.90;;;;;;4961175;28;20114;-93
2022/11/06 02:18:05;;;;;;;73.70;26.75;;;7.20;99.90;;;;;;4961726;28;20030;-93
2022/11/06 02:21:08;;;;;;;73.00;26.08;;;7.20;99.90;;;;;;4960923;28;20113;-92
2022/11/06 02:24:02;;;;;;;67.88;24.83;;;7.20;99.90;;;;;;4961240;28;20265;-91
2022/11/06 02:26:52;;;;;;;54.85;20.63;;;7.20;99.90;;;;;;4960844;28;20023;-93
2022/11/06 02:29:24;;;;;;;52.47;17.75;;;7.30;99.90;;;;;;4961005;28;20031;-92
2022/11/06 02:31:54;;;;;;;48.50;18.20;;;7.30;99.90;;;;;;4960970;28;20026;-93
2022/11/06 02:34:23;;;;;;;58.50;19.50;;;7.30;99.90;;;;;;4961243;28;20176;-94
2022/11/06 02:36:53;;;;;;;53.50;21.55;;;7.30;99.90;;;;;;4961575;28;20050;-93
2022/11/06 02:39:23;;;;;;;52.28;19.02;;;7.30;99.90;;;;;;4968814;28;20031;-93
2022/11/06 02:41:51;;;;;;;52.50;19.02;;;7.30;99.90;;;;;;4964802;28;20038;-93
2022/11/06 02:44:22;;;;;;;51.75;18.80;;;7.30;99.90;;;;;;4960645;28;20108;-94
2022/11/06 02:46:55;;;;;;;51.92;17.92;;;7.20;99.90;;;;;;4960605;28;20038;-93
2022/11/06 02:49:39;;;;;;;49.22;15.73;;;7.20;99.90;;;;;;4960494;28;20034;-94
2022/11/06 02:52:13;;;;;;;47.00;17.15;;;7.20;99.90;;;;;;4960490;28;20062;-92
2022/11/06 02:54:43;;;;;;;48.42;17.48;;;7.20;99.90;;;;;;4960218;28;20035;-92
2022/11/06 02:57:14;;;;;;;41.05;16.13;;;7.20;99.90;;;;;;4960316;28;20058;-93
2022/11/06 03:00:11;;;;;;;38.97;14.23;;;7.10;99.90;;;;;;4960550;28;20035;-93
2022/11/06 03:02:56;;;;;;;45.67;15.10;;;7.10;99.90;;;;;;4959469;28;20511;-94
2022/11/06 03:05:41;;;;;;;42.45;15.27;;;7.20;99.90;;;;;;4959751;28;20051;-93
2022/11/06 03:08:24;;;;;;;44.08;17.60;;;7.10;99.90;;;;;;4959541;28;20469;-93
2022/11/06 03:11:07;;;;;;;44.92;18.20;;;7.20;99.90;;;;;;4960139;28;20035;-93
2022/11/06 03:14:01;;;;;;;46.35;17.10;;;7.20;99.90;;;;;;4959893;28;20037;-94
2022/11/06 03:16:32;;;;;;;52.83;18.02;;;7.20;99.90;;;;;;4960025;28;20042;-92
2022/11/06 03:19:22;;;;;;;44.22;19.13;;;7.20;99.90;;;;;;4960159;28;20034;-92
2022/11/06 03:21:59;;;;;;;47.93;18.70;;;7.20;99.90;;;;;;4977170;28;20023;-93
2022/11/06 03:24:49;;;;;;;53.55;18.65;;;7.20;99.90;;;;;;4961190;28;20069;-93
2022/11/06 03:27:31;;;;;;;54.95;19.40;;;7.20;99.90;;;;;;4960484;28;20500;-94
2022/11/06 03:30:04;;;;;;;45.95;16.80;;;7.20;99.90;;;;;;4959884;28;20117;-93
2022/11/06 03:32:52;;;;;;;40.38;16.50;;;7.20;99.90;;;;;;4959496;28;20105;-92
2022/11/06 03:35:37;;;;;;;43.28;17.50;;;7.20;99.90;;;;;;4959741;28;20527;-93
2022/11/06 03:38:11;;;;;;;37.50;15.90;;;7.20;99.90;;;;;;4959414;28;20064;-93
2022/11/06 03:40:43;;;;;;;46.88;17.50;;;7.20;99.90;;;;;;4959716;28;20027;-92
2022/11/06 03:43:11;;;;;;;38.85;16.17;;;7.20;99.90;;;;;;4959610;28;20023;-92
2022/11/06 03:45:40;;;;;;;41.53;16.55;;;7.20;99.90;;;;;;4959273;28;20031;-92
2022/11/06 03:48:18;;;;;;;47.30;17.60;;;7.20;99.90;;;;;;4959571;28;20023;-91
2022/11/06 03:51:07;;;;;;;39.40;16.85;;;7.30;99.90;;;;;;4959485;28;20191;-92
2022/11/06 03:53:55;;;;;;;46.83;18.42;;;7.30;99.90;;;;;;4948613;28;20043;-91
2022/11/06 03:56:34;;;;;;;46.15;18.48;;;7.20;99.90;;;;;;4959292;28;20023;-92
2022/11/06 03:59:03;;;;;;;41.28;16.80;;;7.20;99.90;;;;;;4959472;28;20027;-92
2022/11/06 04:01:35;;;;;;;44.53;17.98;;;7.20;99.90;;;;;;4959352;28;20026;-93
2022/11/06 04:04:06;;;;;;;53.78;17.00;;;7.20;99.90;;;;;;4959020;28;20046;-92
2022/11/06 04:06:39;;;;;;;40.40;17.90;;;7.20;99.90;;;;;;4958844;28;20075;-92
2022/11/06 04:14:42;;;;;;;43.97;15.45;;;7.20;99.90;;;;;;4976588;28;20092;-92
2022/11/06 04:17:11;;;;;;;42.85;16.92;;;7.20;99.90;;;;;;4961532;28;20113;-90
2022/11/06 04:19:38;;;;;;;42.15;14.85;;;7.20;99.90;;;;;;4975495;28;20047;-90
2022/11/06 04:22:32;;;;;;;33.47;14.23;;;7.20;99.90;;;;;;4966656;28;20022;-91
2022/11/06 04:28:16;;;;;;;39.85;13.70;;;7.10;99.90;;;;;;4976138;28;20115;-91
2022/11/06 04:31:04;;;;;;;33.95;13.57;;;7.10;99.90;;;;;;4958442;28;20511;-91
2022/11/06 04:33:33;;;;;;;35.35;13.60;;;7.00;99.90;;;;;;4959204;28;20089;-92
2022/11/06 04:36:13;;;;;;;41.88;15.82;;;7.00;99.90;;;;;;4967196;28;20047;-92
2022/11/06 04:38:48;;;;;;;48.50;16.38;;;7.00;99.90;;;;;;4958580;28;20035;-93
2022/11/06 04:41:33;;;;;;;42.78;14.73;;;7.00;99.90;;;;;;4958444;28;20030;-94
2022/11/06 04:44:04;;;;;;;45.55;15.50;;;7.00;99.90;;;;;;4958259;28;20129;-93
2022/11/06 04:46:33;;;;;;;36.85;15.25;;;7.00;99.90;;;;;;4958561;28;20023;-94
2022/11/06 04:49:01;;;;;;;35.10;13.90;;;7.00;99.90;;;;;;4957961;28;20085;-92
2022/11/06 04:51:30;;;;;;;31.25;13.85;;;7.00;99.90;;;;;;4957902;28;20304;-94
2022/11/06 04:53:56;;;;;;;36.55;14.60;;;7.00;99.90;;;;;;4957985;28;20042;-93
2022/11/06 04:56:28;;;;;;;35.00;14.07;;;7.10;99.90;;;;;;4958002;28;20077;-93
2022/11/06 04:58:54;;;;;;;39.78;15.52;;;7.10;99.90;;;;;;4958142;28;20369;-93
2022/11/06 05:01:19;;;;;;;40.15;15.38;;;7.10;99.90;;;;;;4957899;28;20050;-93
2022/11/06 05:03:45;;;;;;;36.95;15.15;;;7.10;99.90;;;;;;4957688;28;20043;-93
2022/11/06 05:06:11;;;;;;;48.92;16.08;;;7.10;99.90;;;;;;4957783;28;20059;-93
2022/11/06 05:08:37;;;;;;;46.90;15.70;;;7.10;99.90;;;;;;4958253;28;20117;-93
2022/11/06 05:11:03;;;;;;;42.53;16.83;;;7.10;99.90;;;;;;4957556;28;20528;-94
2022/11/06 05:13:28;;;;;;;69.55;19.98;;;7.10;99.90;;;;;;4957756;28;20477;-93
2022/11/06 05:15:56;;;;;;;47.13;17.95;;;7.10;99.90;;;;;;4957970;28;20110;-93
2022/11/06 05:18:22;;;;;;;52.20;17.55;;;7.10;99.90;;;;;;4957561;28;20031;-93
2022/11/06 05:20:48;;;;;;;46.42;17.55;;;7.10;99.90;;;;;;4957868;28;20026;-94
2022/11/06 05:23:14;;;;;;;50.28;18.17;;;7.10;99.90;;;;;;4957664;28;20027;-94
2022/11/06 05:25:41;;;;;;;56.83;17.45;;;7.10;99.90;;;;;;4957371;28;20433;-92
2022/11/06 05:28:07;;;;;;;66.03;18.08;;;7.10;99.90;;;;;;4957448;28;20047;-92
2022/11/06 05:30:35;;;;;;;52.15;16.95;;;7.10;99.90;;;;;;4957167;28;20045;-92
2022/11/06 05:33:01;;;;;;;43.15;15.93;;;7.10;99.90;;;;;;4957858;28;20113;-92
2022/11/06 05:35:26;;;;;;;48.63;16.05;;;7.10;99.90;;;;;;4957590;28;20065;-93
2022/11/06 05:38:00;;;;;;;52.10;17.05;;;7.10;99.90;;;;;;4957459;28;20034;-92
2022/11/06 05:40:26;;;;;;;51.58;17.02;;;7.10;99.90;;;;;;4957535;28;20023;-92
2022/11/06 05:42:52;;;;;;;50.97;16.75;;;7.10;99.90;;;;;;4957633;28;20082;-93
2022/11/06 05:45:18;;;;;;;43.10;14.63;;;7.10;99.90;;;;;;4957548;28;20435;-93
2022/11/06 05:47:43;;;;;;;67.10;18.35;;;7.10;99.90;;;;;;4957559;28;20098;-92
2022/11/06 05:50:09;;;;;;;53.85;18.63;;;7.10;99.90;;;;;;4957647;28;20132;-93
2022/11/06 05:52:36;;;;;;;65.38;20.08;;;7.10;99.90;;;;;;4957550;28;20073;-92
2022/11/06 05:55:01;;;;;;;53.78;20.95;;;7.10;99.90;;;;;;4957577;28;20034;-93
2022/11/06 05:57:27;;;;;;;61.90;22.08;;;7.10;99.90;;;;;;4957690;28;20023;-92
2022/11/06 05:59:53;;;;;;;58.45;20.70;;;7.00;99.90;;;;;;4957497;28;20035;-94
2022/11/06 06:02:18;;;;;;;60.60;21.38;;;7.00;99.90;;;;;;4957704;28;20031;-93
2022/11/06 06:04:44;;;;;;;50.75;20.52;;;7.00;99.90;;;;;;4957558;28;20086;-93
2022/11/06 06:07:10;;;;;;;54.58;17.83;;;7.00;99.90;;;;;;4957561;28;20094;-93
2022/11/06 06:09:35;;;;;;;58.88;20.27;;;7.00;99.90;;;;;;4957857;28;20034;-93
2022/11/06 06:12:01;;;;;;;62.00;21.67;;;7.00;99.90;;;;;;4958835;28;20122;-94
2022/11/06 06:14:28;;;;;;;57.67;21.23;;;7.00;99.90;;;;;;4967203;28;20472;-92
2022/11/06 06:16:53;;;;;;;51.42;20.83;;;7.00;99.90;;;;;;4959571;28;20035;-92
2022/11/06 06:19:19;;;;;;;56.97;21.27;;;7.00;99.90;;;;;;4957086;28;20513;-93
2022/11/06 06:21:45;;;;;;;48.22;19.27;;;7.00;99.90;;;;;;4957802;28;20023;-93
2022/11/06 06:24:10;;;;;;;51.10;20.17;;;7.00;99.90;;;;;;4957019;28;20150;-92
2022/11/06 06:26:36;;;;;;;48.38;19.58;;;7.00;99.90;;;;;;4957261;28;20144;-93
2022/11/06 06:29:02;;;;;;;57.92;20.15;;;7.00;99.90;;;;;;4957355;28;20030;-93
2022/11/06 06:31:28;;;;;;;55.42;21.27;;;7.00;99.90;;;;;;4957454;28;20069;-93
2022/11/06 06:33:54;;;;;;;59.42;20.75;;;7.00;99.90;;;;;;4960493;28;20122;-93
2022/11/06 06:36:20;;;;;;;53.58;20.88;;;7.00;99.90;;;;;;4968915;28;20049;-92
2022/11/06 06:38:45;;;;;;;55.88;20.02;;;7.00;99.90;;;;;;4978636;28;20098;-93
2022/11/06 06:41:11;;;;;;;42.63;18.48;;;7.10;99.90;;;;;;4958816;28;20027;-93
2022/11/06 06:43:37;;;;;;;58.38;19.40;;;7.10;99.90;;;;;;4960547;28;20035;-92
2022/11/06 06:46:05;;;;;;;52.40;19.70;;;7.10;99.90;;;;;;4960710;28;20023;-93
2022/11/06 06:48:31;;;;;;;56.30;20.40;;;7.10;99.90;;;;;;4960378;28;20031;-94
2022/11/06 06:51:00;;;;;;;52.88;20.80;;;7.10;99.90;;;;;;4960313;28;20443;-92
2022/11/06 06:53:27;;;;;;;67.25;21.15;;;7.10;99.90;;;;;;4960289;28;20485;-92
2022/11/06 06:55:53;;;;;;;53.35;21.17;;;7.10;99.90;;;;;;4960336;28;20121;-92
2022/11/06 06:58:19;;;;;;;56.42;20.83;;;7.10;99.90;;;;;;4960240;28;20130;-93
2022/11/06 07:00:45;;;;;;;55.38;19.15;;;7.10;99.90;;;;;;4962270;28;20052;-92
2022/11/06 07:03:11;;;;;;;50.75;19.05;;;7.10;99.90;;;;;;4962951;28;20027;-93
2022/11/06 07:05:37;;;;;;;47.53;19.17;;;7.10;99.90;;;;;;4960098;28;20408;-92
2022/11/06 07:08:03;;;;;;;51.20;19.77;;;7.10;99.90;;;;;;4960368;28;20117;-92
2022/11/06 07:10:29;;;;;;;61.30;19.42;;;7.10;99.90;;;;;;4960271;28;20530;-92
2022/11/06 07:12:55;;;;;;;59.35;21.67;;;7.10;99.90;;;;;;4977560;28;20023;-93
2022/11/06 07:15:21;;;;;;;52.55;19.00;;;7.20;99.90;;;;;;4960175;28;20392;-93
2022/11/06 07:17:46;;;;;;;53.05;21.58;;;7.20;99.90;;;;;;4959955;28;20073;-92
2022/11/06 07:20:13;;;;;;;56.05;17.05;;;7.10;99.90;;;;;;4960345;28;20025;-94
2022/11/06 07:22:38;;;;;;;62.88;19.02;;;7.10;99.90;;;;;;4966811;28;20030;-92
2022/11/06 07:25:05;;;;;;;58.35;19.65;;;7.20;99.90;;;;;;4980257;28;20031;-92
2022/11/06 07:27:31;;;;;;;57.50;18.10;;;7.20;99.90;;;;;;4978156;28;20473;-92
2022/11/06 07:29:56;;;;;;;53.17;16.27;;;7.20;99.90;;;;;;4959934;28;20031;-91
2022/11/06 07:32:22;;;;;;;50.17;17.08;;;7.20;99.90;;;;;;4960027;28;20022;-92
2022/11/06 07:34:48;;;;;;;42.75;16.42;;;7.20;99.90;;;;;;4959688;28;20472;-92
2022/11/06 07:37:13;;;;;;;48.20;17.30;;;7.20;99.90;;;;;;4959437;28;20480;-94
2022/11/06 07:39:39;;;;;;;54.47;17.27;;;7.30;99.90;;;;;;4959618;28;20023;-93
2022/11/06 07:42:05;;;;;;;48.63;16.05;;;7.30;99.90;;;;;;4959627;28;20073;-92
2022/11/06 07:44:30;;;;;;;66.30;18.55;;;7.30;99.90;;;;;;4959712;28;20404;-93
2022/11/06 07:46:56;;;;;;;53.78;16.10;;;7.30;99.90;;;;;;4959578;28;20027;-92
2022/11/06 07:49:21;;;;;;;58.55;16.90;;;7.30;99.90;;;;;;4959180;28;20030;-92
2022/11/06 07:51:47;;;;;;;56.35;16.23;;;7.30;99.90;;;;;;4959102;28;20376;-92
2022/11/06 07:54:13;;;;;;;50.60;17.23;;;7.40;99.90;;;;;;4959091;28;20034;-92
2022/11/06 07:56:38;;;;;;;57.05;17.45;;;7.30;99.90;;;;;;4959140;28;20027;-92
2022/11/06 07:59:04;;;;;;;55.67;16.30;;;7.40;99.90;;;;;;4959094;28;20031;-93
2022/11/06 08:01:30;;;;;;;49.25;16.45;;;7.40;99.90;;;;;;4959217;28;20027;-93
2022/11/06 08:03:57;;;;;;;40.28;14.48;;;7.40;99.90;;;;;;4943250;28;20050;-94
2022/11/06 08:06:23;;;;;;;55.83;16.10;;;7.40;99.90;;;;;;4958927;28;20051;-94
2022/11/06 08:08:48;;;;;;;54.17;16.60;;;7.40;99.90;;;;;;4959792;28;20034;-92
2022/11/06 08:11:14;;;;;;;40.50;15.32;;;7.40;99.90;;;;;;4970898;28;20025;-93
2022/11/06 08:13:40;;;;;;;44.72;16.20;;;7.40;99.90;;;;;;4975890;28;20014;-93
2022/11/06 08:16:08;;;;;;;47.88;15.73;;;7.50;99.90;;;;;;4969709;28;20392;-93
2022/11/06 08:18:34;;;;;;;55.03;15.80;;;7.50;99.90;;;;;;4958906;28;20173;-93
2022/11/06 08:21:01;;;;;;;45.45;16.55;;;7.50;99.90;;;;;;4959312;28;20031;-93
2022/11/06 08:23:27;;;;;;;38.50;13.98;;;7.50;99.90;;;;;;4958698;28;20023;-92
2022/11/06 08:25:59;;;;;;;46.33;14.57;;;7.50;99.90;;;;;;4958758;28;20045;-93
2022/11/06 08:28:25;;;;;;;48.42;14.98;;;7.60;99.90;;;;;;4958521;28;20027;-92
2022/11/06 08:43:25;;;;;;;40.60;12.88;;;7.70;99.90;;;;;;5112276;23;20051;-93
2022/11/06 08:45:51;;;;;;;43.50;13.35;;;7.70;99.90;;;;;;4955638;29;20066;-92
2022/11/06 08:48:17;;;;;;;45.33;13.93;;;7.80;99.90;;;;;;4940140;29;20357;-92
2022/11/06 08:50:43;;;;;;;44.53;13.95;;;7.80;99.90;;;;;;4939983;29;20476;-92
2022/11/06 08:53:09;;;;;;;35.05;13.18;;;7.80;99.90;;;;;;4939358;29;20078;-93
2022/11/06 08:55:37;;;;;;;50.10;13.82;;;7.90;99.90;;;;;;4939655;29;20019;-93
2022/11/06 08:58:04;;;;;;;33.03;12.02;;;7.90;99.90;;;;;;4956463;29;20086;-92
2022/11/06 09:00:30;;;;;;;38.75;13.00;;;8.00;99.90;;;;;;4955742;29;20027;-93
2022/11/06 09:03:02;;;;;;;41.47;12.73;;;8.00;99.90;;;;;;4956533;29;20050;-93
2022/11/06 09:05:28;;;;;;;47.92;14.23;;;8.00;99.90;;;;;;4938243;29;20050;-92
2022/11/06 09:07:55;;;;;;;34.85;12.60;;;8.10;99.90;;;;;;4939070;29;20438;-93
2022/11/06 09:10:21;;;;;;;43.65;15.07;;;8.10;99.90;;;;;;4938851;29;20090;-93
2022/11/06 09:12:47;;;;;;;51.33;15.50;;;8.10;99.90;;;;;;4955056;29;20032;-92
2022/11/06 09:15:12;;;;;;;35.92;11.68;;;8.20;99.90;;;;;;4938737;29;20027;-92
2022/11/06 09:17:43;;;;;;;46.05;12.35;;;8.30;99.90;;;;;;4955674;29;20026;-92
2022/11/06 09:20:09;;;;;;;41.35;11.25;;;8.20;99.90;;;;;;4940997;29;20035;-92
2022/11/06 09:22:35;;;;;;;38.28;11.02;;;8.30;99.90;;;;;;4945005;29;20059;-92
2022/11/06 09:25:00;;;;;;;33.63;10.85;;;8.30;99.90;;;;;;4942999;29;20470;-91
2022/11/06 09:27:26;;;;;;;34.97;12.18;;;8.30;99.90;;;;;;4954906;29;20028;-92
2022/11/06 09:29:52;;;;;;;34.75;11.02;;;8.40;99.90;;;;;;4955941;29;20039;-92
2022/11/06 09:32:18;;;;;;;31.38;10.23;;;8.50;99.90;;;;;;4939525;29;20061;-93
2022/11/06 09:34:43;;;;;;;40.25;11.18;;;8.50;99.90;;;;;;4939870;29;20027;-93
2022/11/06 09:37:09;;;;;;;35.67;11.45;;;8.60;99.90;;;;;;4938976;29;20031;-92
2022/11/06 09:39:35;;;;;;;38.70;10.82;;;8.60;99.90;;;;;;4938818;29;20028;-92
2022/11/06 09:42:25;;;;;;;32.42;10.55;;;8.60;99.90;;;;;;4938577;29;20035;-93
2022/11/06 09:45:30;;;;;;;42.20;10.75;;;8.70;99.90;;;;;;4940220;29;20505;-92
2022/11/06 09:48:12;;;;;;;37.45;11.13;;;8.80;99.90;;;;;;4935603;29;20059;-92
2022/11/06 09:50:50;;;;;;;32.83;10.32;;;8.80;99.90;;;;;;4946808;29;20028;-92
2022/11/06 09:53:23;;;;;;;25.27;8.80;;;8.90;99.90;;;;;;4949140;29;20114;-92
2022/11/06 09:55:50;;;;;;;29.83;9.07;;;9.00;99.90;;;;;;4941456;29;20028;-93
2022/11/06 09:58:22;;;;;;;30.20;9.45;;;9.10;99.90;;;;;;4938485;29;20019;-92
2022/11/06 10:00:50;;;;;;;23.80;8.10;;;9.20;99.90;;;;;;4954914;29;20109;-92
2022/11/06 10:03:35;;;;;;;31.80;8.70;;;9.30;99.90;;;;;;4938749;29;20023;-93
2022/11/06 10:06:01;;;;;;;28.98;8.25;;;9.30;99.90;;;;;;4938742;29;20043;-93
2022/11/06 10:08:29;;;;;;;30.42;9.50;;;9.40;99.90;;;;;;4938578;29;20027;-93
2022/11/06 10:11:14;;;;;;;33.08;8.60;;;9.50;99.90;;;;;;4938341;29;20027;-93
2022/11/06 10:14:11;;;;;;;32.00;9.23;;;9.60;99.90;;;;;;4954225;29;20397;-92
2022/11/06 10:16:56;;;;;;;37.80;9.95;;;9.60;99.90;;;;;;4940762;29;20066;-93
2022/11/06 10:19:24;;;;;;;32.20;9.50;;;9.70;99.90;;;;;;4957987;29;20091;-91
2022/11/06 10:22:14;;;;;;;25.70;9.18;;;9.80;99.90;;;;;;4957928;29;20118;-93
2022/11/06 10:24:52;;;;;;;27.20;8.63;;;9.90;99.90;;;;;;4941695;29;20111;-92
2022/11/06 10:27:27;;;;;;;28.50;8.75;;;10.10;99.90;;;;;;4957962;29;20338;-93
2022/11/06 10:30:04;;;;;;;24.70;7.97;;;10.20;99.90;;;;;;4941607;29;20082;-93
2022/11/06 10:32:48;;;;;;;19.50;6.68;;;10.20;99.90;;;;;;4941955;29;20027;-93
2022/11/06 10:35:25;;;;;;;20.77;6.63;;;10.30;99.90;;;;;;4957932;29;20031;-92
2022/11/06 10:38:00;;;;;;;20.73;6.38;;;10.50;99.90;;;;;;4941726;29;20019;-92
2022/11/06 10:40:29;;;;;;;24.27;6.22;;;10.90;99.90;;;;;;4941749;29;20057;-92
2022/11/06 10:43:17;;;;;;;17.00;5.40;;;11.40;99.90;;;;;;4941184;29;20566;-92
2022/11/06 10:45:51;;;;;;;12.35;4.50;;;12.00;99.90;;;;;;4941516;29;20042;-94
2022/11/06 10:48:32;;;;;;;20.70;5.63;;;12.60;99.90;;;;;;4957438;29;20046;-92
2022/11/06 10:51:23;;;;;;;15.18;4.70;;;13.00;99.90;;;;;;4942304;29;20031;-91
2022/11/06 10:54:34;;;;;;;17.30;5.00;;;13.00;99.90;;;;;;4958463;29;20023;-93
2022/11/06 10:57:15;;;;;;;17.02;4.55;;;12.70;99.90;;;;;;4887181;29;20028;-91
2022/11/06 10:59:41;;;;;;;13.95;5.03;;;12.50;99.90;;;;;;4904699;29;20039;-92
2022/11/06 11:02:33;;;;;;;20.98;4.93;;;12.40;99.90;;;;;;4901147;29;20059;-91
2022/11/06 11:04:59;;;;;;;18.80;5.00;;;12.30;99.90;;;;;;4899801;29;20060;-91
2022/11/06 11:07:30;;;;;;;18.75;4.80;;;12.30;99.90;;;;;;4883436;29;20036;-92
2022/11/06 11:09:55;;;;;;;23.98;6.45;;;12.60;99.90;;;;;;4899245;29;20042;-92
2022/11/06 11:12:26;;;;;;;17.23;4.63;;;12.80;99.90;;;;;;4899301;29;20119;-92
2022/11/06 11:15:14;;;;;;;21.13;4.80;;;13.20;99.90;;;;;;4883882;29;20040;-92
2022/11/06 11:17:41;;;;;;;17.60;4.80;;;13.40;99.90;;;;;;4905323;29;20494;-91
2022/11/06 11:20:44;;;;;;;17.05;5.28;;;13.50;99.90;;;;;;4884818;29;20028;-92
2022/11/06 11:23:36;;;;;;;12.40;4.65;;;13.50;99.90;;;;;;4881698;29;20085;-92
2022/11/06 11:26:24;;;;;;;14.98;4.63;;;13.40;99.90;;;;;;4880357;29;20053;-92
2022/11/06 11:28:55;;;;;;;15.95;4.85;;;13.40;99.90;;;;;;4900395;29;20064;-92
2022/11/06 11:31:29;;;;;;;18.55;4.88;;;13.20;99.90;;;;;;4883530;29;20040;-91
2022/11/06 11:33:58;;;;;;;16.75;4.82;;;13.10;99.90;;;;;;4915090;29;20024;-94
2022/11/06 11:36:24;;;;;;;14.00;5.70;;;13.10;99.90;;;;;;4914536;29;20032;-91
2022/11/06 11:38:50;;;;;;;13.38;4.78;;;13.10;99.90;;;;;;4914784;29;20033;-92
2022/11/06 11:41:19;;;;;;;17.27;4.60;;;13.50;99.90;;;;;;4914516;29;20077;-91
2022/11/06 11:44:05;;;;;;;14.45;4.88;;;13.80;99.90;;;;;;4898528;29;20048;-91
2022/11/06 11:46:32;;;;;;;15.57;5.97;;;14.20;99.90;;;;;;4914879;29;20530;-93
2022/11/06 11:48:58;;;;;;;12.00;4.50;;;14.50;99.90;;;;;;4915088;29;20509;-92
2022/11/06 11:51:28;;;;;;;12.57;4.43;;;14.60;99.90;;;;;;4917621;29;20041;-93
2022/11/06 11:53:57;;;;;;;13.77;4.00;;;15.00;99.90;;;;;;4923268;29;20040;-91
2022/11/06 11:56:29;;;;;;;18.30;4.57;;;15.50;99.90;;;;;;4937305;29;20046;-93
2022/11/06 11:59:10;;;;;;;11.68;4.03;;;16.10;99.90;;;;;;4955857;29;20027;-93
2022/11/06 12:01:38;;;;;;;13.45;4.25;;;16.20;99.90;;;;;;4954975;29;20059;-92
2022/11/06 12:04:26;;;;;;;12.90;4.88;;;16.20;99.90;;;;;;4957283;29;20031;-92
2022/11/06 12:07:04;;;;;;;10.27;4.10;;;15.90;99.90;;;;;;4958653;29;20032;-92
2022/11/06 12:09:41;;;;;;;15.82;3.85;;;15.50;99.90;;;;;;4971780;29;20034;-92
2022/11/06 12:12:19;;;;;;;14.90;4.30;;;15.10;99.90;;;;;;4956218;29;20066;-92
2022/11/06 12:14:45;;;;;;;12.48;3.70;;;14.90;99.90;;;;;;4958786;29;20039;-93
2022/11/06 12:17:19;;;;;;;14.85;4.30;;;14.70;99.90;;;;;;4957435;29;20055;-93
2022/11/06 12:19:52;;;;;;;14.88;5.15;;;14.50;99.90;;;;;;4956176;29;20031;-93
2022/11/06 12:22:26;;;;;;;14.75;4.95;;;14.20;99.90;;;;;;4945814;29;20023;-92
2022/11/06 12:24:58;;;;;;;21.42;6.05;;;13.90;99.90;;;;;;4959177;29;20054;-92
2022/11/06 12:27:28;;;;;;;17.55;6.25;;;13.70;99.90;;;;;;4944099;29;20027;-92
2022/11/06 12:29:57;;;;;;;17.92;6.10;;;13.40;99.90;;;;;;4945385;29;20031;-92
2022/11/06 12:32:47;;;;;;;20.70;6.43;;;13.20;99.90;;;;;;4958720;29;20046;-92
2022/11/06 12:35:33;;;;;;;23.17;6.28;;;13.00;99.90;;;;;;4943415;29;20031;-91
2022/11/06 12:38:01;;;;;;;18.38;5.80;;;12.80;99.90;;;;;;4944238;28;20091;-92
2022/11/06 12:40:29;;;;;;;17.75;7.20;;;12.70;99.90;;;;;;4962129;29;20039;-92
2022/11/06 12:43:26;;;;;;;19.58;6.70;;;12.60;99.90;;;;;;4941896;29;20059;-92
2022/11/06 12:46:20;;;;;;;17.00;5.43;;;12.40;99.90;;;;;;4958069;29;20039;-92
2022/11/06 12:48:48;;;;;;;15.15;5.88;;;12.30;99.90;;;;;;4957473;29;20111;-92
2022/11/06 12:51:25;;;;;;;16.80;5.35;;;12.20;99.90;;;;;;4957563;29;20023;-91
2022/11/06 12:54:06;;;;;;;13.68;4.95;;;12.20;99.90;;;;;;4957165;29;20046;-91
2022/11/06 12:57:01;;;;;;;17.58;5.20;;;12.10;99.90;;;;;;4957440;29;20097;-91
2022/11/06 12:59:42;;;;;;;9.07;3.75;;;12.10;99.90;;;;;;4950474;29;20038;-93
2022/11/06 13:02:32;;;;;;;14.82;4.38;;;12.00;99.90;;;;;;4962752;29;20042;-91
2022/11/06 13:05:03;;;;;;;21.55;5.50;;;12.00;99.90;;;;;;4940051;29;20042;-91
2022/11/06 13:07:54;;;;;;;19.65;5.07;;;11.90;99.90;;;;;;4939919;29;20169;-92
2022/11/06 13:10:38;;;;;;;8.48;3.88;;;11.90;99.90;;;;;;4956948;29;20027;-92
2022/11/06 13:13:03;;;;;;;10.73;4.43;;;11.90;99.90;;;;;;4957237;29;20122;-91
2022/11/06 13:15:46;;;;;;;10.30;4.70;;;11.80;99.90;;;;;;4956439;29;20484;-91
2022/11/06 13:18:24;;;;;;;19.52;4.50;;;11.70;99.90;;;;;;4941312;29;20046;-92
2022/11/06 13:21:14;;;;;;;12.30;4.55;;;11.70;99.90;;;;;;4940448;29;20023;-92
2022/11/06 13:23:53;;;;;;;12.63;4.23;;;11.60;99.90;;;;;;4940340;29;20031;-92